sensor_id;sensor_type;location;lat;lon;timestamp;temperature;humidity
35920;DHT22;36160;53.370;-6.196;2023-01-09T00:01:20;5.90;99.90
35920;DHT22;36160;53.370;-6.196;2023-01-09T00:03:46;5.90;99.90
35920;DHT22;36160;53.370;-6.196;2023-01-09T00:06:12;5.90;99.90
35920;DHT22;36160;53.370;-6.196;2023-01-09T00:08:38;5.90;99.90
35920;DHT22;36160;53.370;-6.196;2023-01-09T00:11:04;5.90;99.90
35920;DHT22;36160;53.370;-6.196;2023-01-09T00:13:30;5.90;99.90
35920;DHT22;36160;53.370;-6.196;2023-01-09T00:15:56;5.90;99.90
35920;DHT22;36160;53.370;-6.196;2023-01-09T00:18:23;5.90;99.90
35920;DHT22;36160;53.370;-6.196;2023-01-09T00:20:49;6.00;99.90
35920;DHT22;36160;53.370;-6.196;2023-01-09T00:23:15;6.00;99.90
35920;DHT22;36160;53.370;-6.196;2023-01-09T00:25:40;6.00;99.90
35920;DHT22;36160;53.370;-6.196;2023-01-09T00:28:06;5.90;99.90
35920;DHT22;36160;53.370;-6.196;2023-01-09T00:30:31;6.00;99.90
35920;DHT22;36160;53.370;-6.196;2023-01-09T00:32:57;5.90;99.90
35920;DHT22;36160;53.370;-6.196;2023-01-09T00:35:24;5.90;99.90
35920;DHT22;36160;53.370;-6.196;2023-01-09T00:37:50;6.00;99.90
35920;DHT22;36160;53.370;-6.196;2023-01-09T00:40:16;6.00;99.90
35920;DHT22;36160;53.370;-6.196;2023-01-09T00:42:46;6.00;99.90
35920;DHT22;36160;53.370;-6.196;2023-01-09T00:45:17;6.00;99.90
35920;DHT22;36160;53.370;-6.196;2023-01-09T00:47:47;6.10;99.90
35920;DHT22;36160;53.370;-6.196;2023-01-09T00:50:26;6.10;99.90
35920;DHT22;36160;53.370;-6.196;2023-01-09T00:52:54;6.10;99.90
35920;DHT22;36160;53.370;-6.196;2023-01-09T00:55:21;6.10;99.90
35920;DHT22;36160;53.370;-6.196;2023-01-09T00:57:47;6.10;99.90
35920;DHT22;36160;53.370;-6.196;2023-01-09T01:00:14;6.20;99.90
35920;DHT22;36160;53.370;-6.196;2023-01-09T01:02:40;6.20;99.90
35920;DHT22;36160;53.370;-6.196;2023-01-09T01:05:06;6.20;99.90
35920;DHT22;36160;53.370;-6.196;2023-01-09T01:07:50;6.30;99.90
35920;DHT22;36160;53.370;-6.196;2023-01-09T01:10:20;6.30;99.90
35920;DHT22;36160;53.370;-6.196;2023-01-09T01:12:47;6.30;99.90
35920;DHT22;36160;53.370;-6.196;2023-01-09T01:15:13;6.30;99.90
35920;DHT22;36160;53.370;-6.196;2023-01-09T01:17:40;6.30;99.90
35920;DHT22;36160;53.370;-6.196;2023-01-09T01:20:09;6.40;99.90
35920;DHT22;36160;53.370;-6.196;2023-01-09T01:22:35;6.40;99.90
35920;DHT22;36160;53.370;-6.196;2023-01-09T01:25:02;6.40;99.90
35920;DHT22;36160;53.370;-6.196;2023-01-09T01:27:28;6.40;99.90
35920;DHT22;36160;53.370;-6.196;2023-01-09T01:29:54;6.40;99.90
35920;DHT22;36160;53.370;-6.196;2023-01-09T01:32:19;6.50;99.90
35920;DHT22;36160;53.370;-6.196;2023-01-09T01:34:45;6.40;99.90
35920;DHT22;36160;53.370;-6.196;2023-01-09T01:37:11;6.40;99.90
35920;DHT22;36160;53.370;-6.196;2023-01-09T01:39:37;6.40;99.90
35920;DHT22;36160;53.370;-6.196;2023-01-09T01:42:03;6.40;99.90
35920;DHT22;36160;53.370;-6.196;2023-01-09T01:45:01;6.40;99.90
35920;DHT22;36160;53.370;-6.196;2023-01-09T01:47:53;6.40;99.90
35920;DHT22;36160;53.370;-6.196;2023-01-09T01:55:28;6.40;99.90
35920;DHT22;36160;53.370;-6.196;2023-01-09T01:57:57;6.40;99.90
35920;DHT22;36160;53.370;-6.196;2023-01-09T02:00:30;6.40;99.90
35920;DHT22;36160;53.370;-6.196;2023-01-09T02:02:58;6.40;99.90
35920;DHT22;36160;53.370;-6.196;2023-01-09T02:05:25;6.40;99.90
35920;DHT22;36160;53.370;-6.196;2023-01-09T02:07:51;6.40;99.90
35920;DHT22;36160;53.370;-6.196;2023-01-09T02:10:16;6.40;99.90
35920;DHT22;36160;53.370;-6.196;2023-01-09T02:12:42;6.30;99.90
35920;DHT22;36160;53.370;-6.196;2023-01-09T02:15:13;6.30;99.90
35920;DHT22;36160;53.370;-6.196;2023-01-09T02:31:39;6.30;99.90
35920;DHT22;36160;53.370;-6.196;2023-01-09T02:34:11;6.30;99.90
35920;DHT22;36160;53.370;-6.196;2023-01-09T02:36:51;6.20;99.90
35920;DHT22;36160;53.370;-6.196;2023-01-09T02:39:26;6.30;99.90
35920;DHT22;36160;53.370;-6.196;2023-01-09T02:42:09;6.30;99.90
35920;DHT22;36160;53.370;-6.196;2023-01-09T02:44:37;6.40;99.90
35920;DHT22;36160;53.370;-6.196;2023-01-09T02:49:44;6.40;99.90
35920;DHT22;36160;53.370;-6.196;2023-01-09T02:57:31;6.30;99.90
35920;DHT22;36160;53.370;-6.196;2023-01-09T03:00:07;6.40;99.90
35920;DHT22;36160;53.370;-6.196;2023-01-09T03:02:51;6.40;99.90
35920;DHT22;36160;53.370;-6.196;2023-01-09T03:05:33;6.40;99.90
35920;DHT22;36160;53.370;-6.196;2023-01-09T03:08:14;6.50;99.90
35920;DHT22;36160;53.370;-6.196;2023-01-09T03:10:44;6.50;99.90
35920;DHT22;36160;53.370;-6.196;2023-01-09T03:13:14;6.50;99.90
35920;DHT22;36160;53.370;-6.196;2023-01-09T03:15:43;6.50;99.90
35920;DHT22;36160;53.370;-6.196;2023-01-09T03:18:13;6.40;99.90
35920;DHT22;36160;53.370;-6.196;2023-01-09T03:20:41;6.50;99.90
35920;DHT22;36160;53.370;-6.196;2023-01-09T03:23:08;6.40;99.90
35920;DHT22;36160;53.370;-6.196;2023-01-09T03:25:34;6.40;99.90
35920;DHT22;36160;53.370;-6.196;2023-01-09T03:28:05;6.50;99.90
35920;DHT22;36160;53.370;-6.196;2023-01-09T03:30:33;6.40;99.90
35920;DHT22;36160;53.370;-6.196;2023-01-09T03:32:59;6.40;99.90
35920;DHT22;36160;53.370;-6.196;2023-01-09T03:35:25;6.30;99.90
35920;DHT22;36160;53.370;-6.196;2023-01-09T03:37:51;6.30;99.90
35920;DHT22;36160;53.370;-6.196;2023-01-09T03:40:18;6.40;99.90
35920;DHT22;36160;53.370;-6.196;2023-01-09T03:42:44;6.30;99.90
35920;DHT22;36160;53.370;-6.196;2023-01-09T03:45:09;6.30;99.90
35920;DHT22;36160;53.370;-6.196;2023-01-09T03:47:35;6.30;99.90
35920;DHT22;36160;53.370;-6.196;2023-01-09T03:50:01;6.30;99.90
35920;DHT22;36160;53.370;-6.196;2023-01-09T03:52:27;6.30;99.90
35920;DHT22;36160;53.370;-6.196;2023-01-09T03:54:53;6.20;99.90
35920;DHT22;36160;53.370;-6.196;2023-01-09T03:57:18;6.10;99.90
35920;DHT22;36160;53.370;-6.196;2023-01-09T03:59:44;6.10;99.90
35920;DHT22;36160;53.370;-6.196;2023-01-09T04:02:10;6.10;99.90
35920;DHT22;36160;53.370;-6.196;2023-01-09T04:04:35;6.00;99.90
35920;DHT22;36160;53.370;-6.196;2023-01-09T04:07:01;5.90;99.90
35920;DHT22;36160;53.370;-6.196;2023-01-09T04:09:26;5.90;99.90
35920;DHT22;36160;53.370;-6.196;2023-01-09T04:11:52;5.80;99.90
35920;DHT22;36160;53.370;-6.196;2023-01-09T04:14:18;5.70;99.90
35920;DHT22;36160;53.370;-6.196;2023-01-09T04:16:43;5.80;99.90
35920;DHT22;36160;53.370;-6.196;2023-01-09T04:19:09;5.70;99.90
35920;DHT22;36160;53.370;-6.196;2023-01-09T04:21:35;5.70;99.90
35920;DHT22;36160;53.370;-6.196;2023-01-09T04:24:00;5.80;99.90
35920;DHT22;36160;53.370;-6.196;2023-01-09T04:26:27;5.80;99.90
35920;DHT22;36160;53.370;-6.196;2023-01-09T04:28:53;5.80;99.90
35920;DHT22;36160;53.370;-6.196;2023-01-09T04:31:19;5.70;99.90
35920;DHT22;36160;53.370;-6.196;2023-01-09T04:33:44;5.90;99.90
35920;DHT22;36160;53.370;-6.196;2023-01-09T04:36:10;5.80;99.90
35920;DHT22;36160;53.370;-6.196;2023-01-09T04:38:36;5.80;99.90
35920;DHT22;36160;53.370;-6.196;2023-01-09T04:41:01;5.90;99.90
35920;DHT22;36160;53.370;-6.196;2023-01-09T04:43:27;5.80;99.90
35920;DHT22;36160;53.370;-6.196;2023-01-09T04:45:53;5.70;99.90
35920;DHT22;36160;53.370;-6.196;2023-01-09T04:48:18;5.70;99.90
35920;DHT22;36160;53.370;-6.196;2023-01-09T04:50:44;5.70;99.90
35920;DHT22;36160;53.370;-6.196;2023-01-09T04:53:09;5.70;99.90
35920;DHT22;36160;53.370;-6.196;2023-01-09T04:55:35;5.80;99.90
35920;DHT22;36160;53.370;-6.196;2023-01-09T04:58:01;5.80;99.90
35920;DHT22;36160;53.370;-6.196;2023-01-09T05:00:26;5.90;99.90
35920;DHT22;36160;53.370;-6.196;2023-01-09T05:02:52;5.90;99.90
35920;DHT22;36160;53.370;-6.196;2023-01-09T05:05:18;5.80;99.90
35920;DHT22;36160;53.370;-6.196;2023-01-09T05:07:43;5.80;99.90
35920;DHT22;36160;53.370;-6.196;2023-01-09T05:10:10;5.80;99.90
35920;DHT22;36160;53.370;-6.196;2023-01-09T05:12:36;5.70;99.90
35920;DHT22;36160;53.370;-6.196;2023-01-09T05:15:02;5.70;99.90
35920;DHT22;36160;53.370;-6.196;2023-01-09T05:17:28;5.70;99.90
35920;DHT22;36160;53.370;-6.196;2023-01-09T05:19:54;5.70;99.90
35920;DHT22;36160;53.370;-6.196;2023-01-09T05:22:20;5.60;99.90
35920;DHT22;36160;53.370;-6.196;2023-01-09T05:24:45;5.60;99.90
35920;DHT22;36160;53.370;-6.196;2023-01-09T05:27:11;5.60;99.90
35920;DHT22;36160;53.370;-6.196;2023-01-09T05:29:37;5.60;99.90
35920;DHT22;36160;53.370;-6.196;2023-01-09T05:32:03;5.40;99.90
35920;DHT22;36160;53.370;-6.196;2023-01-09T05:34:28;5.50;99.90
35920;DHT22;36160;53.370;-6.196;2023-01-09T05:36:54;5.30;99.90
35920;DHT22;36160;53.370;-6.196;2023-01-09T05:39:20;5.40;99.90
35920;DHT22;36160;53.370;-6.196;2023-01-09T05:41:46;5.30;99.90
35920;DHT22;36160;53.370;-6.196;2023-01-09T05:44:11;5.30;99.90
35920;DHT22;36160;53.370;-6.196;2023-01-09T05:46:37;5.20;99.90
35920;DHT22;36160;53.370;-6.196;2023-01-09T05:49:03;5.30;99.90
35920;DHT22;36160;53.370;-6.196;2023-01-09T05:51:28;5.30;99.90
35920;DHT22;36160;53.370;-6.196;2023-01-09T05:53:56;5.20;99.90
35920;DHT22;36160;53.370;-6.196;2023-01-09T05:56:22;5.20;99.90
35920;DHT22;36160;53.370;-6.196;2023-01-09T05:58:48;5.20;99.90
35920;DHT22;36160;53.370;-6.196;2023-01-09T06:01:14;5.20;99.90
35920;DHT22;36160;53.370;-6.196;2023-01-09T06:03:41;5.20;99.90
35920;DHT22;36160;53.370;-6.196;2023-01-09T06:06:06;5.10;99.90
35920;DHT22;36160;53.370;-6.196;2023-01-09T06:08:32;5.20;99.90
35920;DHT22;36160;53.370;-6.196;2023-01-09T06:10:58;5.20;99.90
35920;DHT22;36160;53.370;-6.196;2023-01-09T06:13:23;5.20;99.90
35920;DHT22;36160;53.370;-6.196;2023-01-09T06:15:49;5.10;99.90
35920;DHT22;36160;53.370;-6.196;2023-01-09T06:18:15;5.10;99.90
35920;DHT22;36160;53.370;-6.196;2023-01-09T06:20:43;5.10;99.90
35920;DHT22;36160;53.370;-6.196;2023-01-09T06:23:10;5.10;99.90
35920;DHT22;36160;53.370;-6.196;2023-01-09T06:25:35;5.00;99.90
35920;DHT22;36160;53.370;-6.196;2023-01-09T06:28:01;5.00;99.90
35920;DHT22;36160;53.370;-6.196;2023-01-09T06:30:27;5.00;99.90
35920;DHT22;36160;53.370;-6.196;2023-01-09T06:32:53;5.00;99.90
35920;DHT22;36160;53.370;-6.196;2023-01-09T06:35:18;5.00;99.90
35920;DHT22;36160;53.370;-6.196;2023-01-09T06:37:46;5.00;99.90
35920;DHT22;36160;53.370;-6.196;2023-01-09T06:40:12;5.10;99.90
35920;DHT22;36160;53.370;-6.196;2023-01-09T06:42:38;5.10;99.90
35920;DHT22;36160;53.370;-6.196;2023-01-09T06:45:06;5.00;99.90
35920;DHT22;36160;53.370;-6.196;2023-01-09T06:47:32;5.00;99.90
35920;DHT22;36160;53.370;-6.196;2023-01-09T06:49:58;5.00;99.90
35920;DHT22;36160;53.370;-6.196;2023-01-09T06:52:23;5.00;99.90
35920;DHT22;36160;53.370;-6.196;2023-01-09T06:54:49;5.00;99.90
35920;DHT22;36160;53.370;-6.196;2023-01-09T06:57:15;5.00;99.90
35920;DHT22;36160;53.370;-6.196;2023-01-09T06:59:40;5.00;99.90
35920;DHT22;36160;53.370;-6.196;2023-01-09T07:02:16;5.00;99.90
35920;DHT22;36160;53.370;-6.196;2023-01-09T07:04:42;5.00;99.90
35920;DHT22;36160;53.370;-6.196;2023-01-09T07:07:08;5.00;99.90
35920;DHT22;36160;53.370;-6.196;2023-01-09T07:09:33;4.90;99.90
35920;DHT22;36160;53.370;-6.196;2023-01-09T07:11:59;4.90;99.90
35920;DHT22;36160;53.370;-6.196;2023-01-09T07:14:25;4.90;99.90
35920;DHT22;36160;53.370;-6.196;2023-01-09T07:16:50;4.90;99.90
35920;DHT22;36160;53.370;-6.196;2023-01-09T07:19:16;4.90;99.90
35920;DHT22;36160;53.370;-6.196;2023-01-09T07:21:42;4.90;99.90
35920;DHT22;36160;53.370;-6.196;2023-01-09T07:24:07;4.90;99.90
35920;DHT22;36160;53.370;-6.196;2023-01-09T07:26:33;4.90;99.90
35920;DHT22;36160;53.370;-6.196;2023-01-09T07:28:58;4.90;99.90
35920;DHT22;36160;53.370;-6.196;2023-01-09T07:31:24;4.80;99.90
35920;DHT22;36160;53.370;-6.196;2023-01-09T07:33:50;4.80;99.90
35920;DHT22;36160;53.370;-6.196;2023-01-09T07:36:16;4.80;99.90
35920;DHT22;36160;53.370;-6.196;2023-01-09T07:38:41;4.80;99.90
35920;DHT22;36160;53.370;-6.196;2023-01-09T07:41:07;4.80;99.90
35920;DHT22;36160;53.370;-6.196;2023-01-09T07:43:33;4.80;99.90
35920;DHT22;36160;53.370;-6.196;2023-01-09T07:45:58;4.90;99.90
35920;DHT22;36160;53.370;-6.196;2023-01-09T07:48:24;4.80;99.90
35920;DHT22;36160;53.370;-6.196;2023-01-09T07:50:50;4.80;99.90
35920;DHT22;36160;53.370;-6.196;2023-01-09T07:53:15;4.80;99.90
35920;DHT22;36160;53.370;-6.196;2023-01-09T07:55:42;4.90;99.90
35920;DHT22;36160;53.370;-6.196;2023-01-09T07:58:08;4.90;99.90
35920;DHT22;36160;53.370;-6.196;2023-01-09T08:00:33;4.80;99.90
35920;DHT22;36160;53.370;-6.196;2023-01-09T08:02:59;4.80;99.90
35920;DHT22;36160;53.370;-6.196;2023-01-09T08:05:25;4.80;99.90
35920;DHT22;36160;53.370;-6.196;2023-01-09T08:07:50;4.80;99.90
35920;DHT22;36160;53.370;-6.196;2023-01-09T08:10:17;4.80;99.90
35920;DHT22;36160;53.370;-6.196;2023-01-09T08:12:47;4.70;99.90
35920;DHT22;36160;53.370;-6.196;2023-01-09T08:15:14;4.80;99.90
35920;DHT22;36160;53.370;-6.196;2023-01-09T08:17:41;4.80;99.90
35920;DHT22;36160;53.370;-6.196;2023-01-09T08:20:11;4.70;99.90
35920;DHT22;36160;53.370;-6.196;2023-01-09T08:22:41;4.70;99.90
35920;DHT22;36160;53.370;-6.196;2023-01-09T08:25:07;4.60;99.90
35920;DHT22;36160;53.370;-6.196;2023-01-09T08:27:35;4.70;99.90
35920;DHT22;36160;53.370;-6.196;2023-01-09T08:30:02;4.70;99.90
35920;DHT22;36160;53.370;-6.196;2023-01-09T08:32:28;4.70;99.90
35920;DHT22;36160;53.370;-6.196;2023-01-09T08:34:53;4.70;99.90
35920;DHT22;36160;53.370;-6.196;2023-01-09T08:37:19;4.60;99.90
35920;DHT22;36160;53.370;-6.196;2023-01-09T08:39:45;4.60;99.90
35920;DHT22;36160;53.370;-6.196;2023-01-09T08:42:10;4.70;99.90
35920;DHT22;36160;53.370;-6.196;2023-01-09T08:44:54;4.70;99.90
35920;DHT22;36160;53.370;-6.196;2023-01-09T08:47:38;4.60;99.90
35920;DHT22;36160;53.370;-6.196;2023-01-09T08:50:05;4.70;99.90
35920;DHT22;36160;53.370;-6.196;2023-01-09T08:52:31;4.70;99.90
35920;DHT22;36160;53.370;-6.196;2023-01-09T08:54:57;4.70;99.90
35920;DHT22;36160;53.370;-6.196;2023-01-09T08:57:23;4.70;99.90
35920;DHT22;36160;53.370;-6.196;2023-01-09T08:59:49;4.80;99.90
35920;DHT22;36160;53.370;-6.196;2023-01-09T09:02:14;4.70;99.90
35920;DHT22;36160;53.370;-6.196;2023-01-09T09:04:40;4.80;99.90
35920;DHT22;36160;53.370;-6.196;2023-01-09T09:07:06;4.80;99.90
35920;DHT22;36160;53.370;-6.196;2023-01-09T09:09:32;4.80;99.90
35920;DHT22;36160;53.370;-6.196;2023-01-09T09:11:57;4.80;99.90
35920;DHT22;36160;53.370;-6.196;2023-01-09T09:14:23;4.80;99.90
35920;DHT22;36160;53.370;-6.196;2023-01-09T09:17:07;4.80;99.90
35920;DHT22;36160;53.370;-6.196;2023-01-09T09:19:33;4.80;99.90
35920;DHT22;36160;53.370;-6.196;2023-01-09T09:21:58;4.90;99.90
35920;DHT22;36160;53.370;-6.196;2023-01-09T09:24:24;4.90;99.90
35920;DHT22;36160;53.370;-6.196;2023-01-09T09:26:50;4.90;99.90
35920;DHT22;36160;53.370;-6.196;2023-01-09T09:29:15;4.80;99.90
35920;DHT22;36160;53.370;-6.196;2023-01-09T09:31:41;4.90;99.90
35920;DHT22;36160;53.370;-6.196;2023-01-09T09:34:07;4.90;99.90
35920;DHT22;36160;53.370;-6.196;2023-01-09T09:36:35;4.90;99.90
35920;DHT22;36160;53.370;-6.196;2023-01-09T09:39:00;4.90;99.90
35920;DHT22;36160;53.370;-6.196;2023-01-09T09:47:34;4.90;99.90
35920;DHT22;36160;53.370;-6.196;2023-01-09T09:53:04;4.90;99.90
35920;DHT22;36160;53.370;-6.196;2023-01-09T09:55:36;5.00;99.90
35920;DHT22;36160;53.370;-6.196;2023-01-09T09:58:55;4.90;99.90
35920;DHT22;36160;53.370;-6.196;2023-01-09T10:00:58;4.90;99.90
35920;DHT22;36160;53.370;-6.196;2023-01-09T10:03:38;5.00;99.90
35920;DHT22;36160;53.370;-6.196;2023-01-09T10:06:29;5.00;99.90
35920;DHT22;36160;53.370;-6.196;2023-01-09T10:09:05;5.10;99.90
35920;DHT22;36160;53.370;-6.196;2023-01-09T10:14:11;5.10;99.90
35920;DHT22;36160;53.370;-6.196;2023-01-09T10:39:09;5.60;99.90
35920;DHT22;36160;53.370;-6.196;2023-01-09T10:44:25;5.60;99.90
35920;DHT22;36160;53.370;-6.196;2023-01-09T10:46:54;5.70;99.90
35920;DHT22;36160;53.370;-6.196;2023-01-09T10:49:21;5.70;99.90
35920;DHT22;36160;53.370;-6.196;2023-01-09T10:51:48;5.80;99.90
35920;DHT22;36160;53.370;-6.196;2023-01-09T10:54:23;5.80;99.90
35920;DHT22;36160;53.370;-6.196;2023-01-09T10:56:59;5.90;99.90
35920;DHT22;36160;53.370;-6.196;2023-01-09T10:59:26;5.90;99.90
35920;DHT22;36160;53.370;-6.196;2023-01-09T11:01:54;5.90;99.90
35920;DHT22;36160;53.370;-6.196;2023-01-09T11:04:28;5.90;99.90
35920;DHT22;36160;53.370;-6.196;2023-01-09T11:06:58;6.00;99.90
35920;DHT22;36160;53.370;-6.196;2023-01-09T11:09:24;5.90;99.90
35920;DHT22;36160;53.370;-6.196;2023-01-09T11:11:50;5.90;99.90
35920;DHT22;36160;53.370;-6.196;2023-01-09T11:14:23;6.00;99.90
35920;DHT22;36160;53.370;-6.196;2023-01-09T11:16:53;6.00;99.90
35920;DHT22;36160;53.370;-6.196;2023-01-09T11:19:19;6.00;99.90
35920;DHT22;36160;53.370;-6.196;2023-01-09T11:21:45;6.10;99.90
35920;DHT22;36160;53.370;-6.196;2023-01-09T11:26:47;6.10;99.90
35920;DHT22;36160;53.370;-6.196;2023-01-09T11:29:21;6.10;99.90
35920;DHT22;36160;53.370;-6.196;2023-01-09T11:31:52;6.20;99.90
35920;DHT22;36160;53.370;-6.196;2023-01-09T11:34:20;6.20;98.20
35920;DHT22;36160;53.370;-6.196;2023-01-09T11:36:47;6.20;95.70
35920;DHT22;36160;53.370;-6.196;2023-01-09T11:39:25;6.30;95.00
35920;DHT22;36160;53.370;-6.196;2023-01-09T11:41:58;6.30;95.10
35920;DHT22;36160;53.370;-6.196;2023-01-09T11:44:26;6.30;96.80
35920;DHT22;36160;53.370;-6.196;2023-01-09T11:46:54;6.40;95.50
35920;DHT22;36160;53.370;-6.196;2023-01-09T11:49:25;6.40;96.70
35920;DHT22;36160;53.370;-6.196;2023-01-09T11:54:37;6.40;98.10
35920;DHT22;36160;53.370;-6.196;2023-01-09T11:57:05;6.50;96.50
35920;DHT22;36160;53.370;-6.196;2023-01-09T11:59:32;6.50;95.60
35920;DHT22;36160;53.370;-6.196;2023-01-09T12:05:43;6.50;93.00
35920;DHT22;36160;53.370;-6.196;2023-01-09T12:14:20;6.60;85.60
35920;DHT22;36160;53.370;-6.196;2023-01-09T12:18:06;6.70;90.40
35920;DHT22;36160;53.370;-6.196;2023-01-09T12:20:52;6.70;86.90
35920;DHT22;36160;53.370;-6.196;2023-01-09T12:38:54;7.00;68.00
35920;DHT22;36160;53.370;-6.196;2023-01-09T12:44:40;7.20;58.30
35920;DHT22;36160;53.370;-6.196;2023-01-09T12:53:16;7.40;40.40
35920;DHT22;36160;53.370;-6.196;2023-01-09T12:56:38;7.30;39.20
35920;DHT22;36160;53.370;-6.196;2023-01-09T13:06:02;7.50;20.20
35920;DHT22;36160;53.370;-6.196;2023-01-09T13:12:17;7.50;15.70
35920;DHT22;36160;53.370;-6.196;2023-01-09T13:18:54;7.60;6.20
35920;DHT22;36160;53.370;-6.196;2023-01-09T13:22:15;7.70;7.00
35920;DHT22;36160;53.370;-6.196;2023-01-09T13:27:16;7.80;1.60
35920;DHT22;36160;53.370;-6.196;2023-01-09T13:29:47;7.90;1.00
35920;DHT22;36160;53.370;-6.196;2023-01-09T13:34:59;7.80;1.00
35920;DHT22;36160;53.370;-6.196;2023-01-09T13:37:27;7.80;1.00
35920;DHT22;36160;53.370;-6.196;2023-01-09T13:40:02;7.80;1.00
35920;DHT22;36160;53.370;-6.196;2023-01-09T13:42:29;7.80;1.00
35920;DHT22;36160;53.370;-6.196;2023-01-09T13:47:43;7.80;1.00
35920;DHT22;36160;53.370;-6.196;2023-01-09T13:55:26;8.00;1.00
35920;DHT22;36160;53.370;-6.196;2023-01-09T13:58:16;8.10;1.00
35920;DHT22;36160;53.370;-6.196;2023-01-09T14:08:14;8.20;1.00
35920;DHT22;36160;53.370;-6.196;2023-01-09T14:10:45;8.30;99.90
35920;DHT22;36160;53.370;-6.196;2023-01-09T14:13:24;8.40;99.90
35920;DHT22;36160;53.370;-6.196;2023-01-09T14:16:00;8.40;99.90
35920;DHT22;36160;53.370;-6.196;2023-01-09T14:18:29;8.40;99.90
35920;DHT22;36160;53.370;-6.196;2023-01-09T14:20:58;8.40;99.90
35920;DHT22;36160;53.370;-6.196;2023-01-09T14:23:36;8.40;99.90
35920;DHT22;36160;53.370;-6.196;2023-01-09T14:26:04;8.40;99.90
35920;DHT22;36160;53.370;-6.196;2023-01-09T14:28:32;8.30;99.90
35920;DHT22;36160;53.370;-6.196;2023-01-09T14:33:26;8.40;99.90
35920;DHT22;36160;53.370;-6.196;2023-01-09T14:36:08;8.40;99.90
35920;DHT22;36160;53.370;-6.196;2023-01-09T14:41:32;8.40;99.90
35920;DHT22;36160;53.370;-6.196;2023-01-09T14:55:25;8.30;99.90
35920;DHT22;36160;53.370;-6.196;2023-01-09T14:57:52;8.20;99.90
35920;DHT22;36160;53.370;-6.196;2023-01-09T15:00:20;8.30;99.90
35920;DHT22;36160;53.370;-6.196;2023-01-09T15:02:47;8.20;99.90
35920;DHT22;36160;53.370;-6.196;2023-01-09T15:05:17;8.20;99.90
35920;DHT22;36160;53.370;-6.196;2023-01-09T15:07:57;8.20;99.90
35920;DHT22;36160;53.370;-6.196;2023-01-09T15:10:29;8.20;99.90
35920;DHT22;36160;53.370;-6.196;2023-01-09T15:12:58;8.20;99.90
35920;DHT22;36160;53.370;-6.196;2023-01-09T15:15:24;8.20;99.90
35920;DHT22;36160;53.370;-6.196;2023-01-09T15:18:11;8.20;99.90
35920;DHT22;36160;53.370;-6.196;2023-01-09T15:20:42;8.10;99.90
35920;DHT22;36160;53.370;-6.196;2023-01-09T15:23:22;8.10;99.90
35920;DHT22;36160;53.370;-6.196;2023-01-09T15:25:49;8.10;99.90
35920;DHT22;36160;53.370;-6.196;2023-01-09T15:28:24;8.10;99.90
35920;DHT22;36160;53.370;-6.196;2023-01-09T15:31:03;8.00;99.90
35920;DHT22;36160;53.370;-6.196;2023-01-09T15:33:31;8.00;99.90
35920;DHT22;36160;53.370;-6.196;2023-01-09T15:35:57;8.10;99.90
35920;DHT22;36160;53.370;-6.196;2023-01-09T15:38:28;8.10;99.90
35920;DHT22;36160;53.370;-6.196;2023-01-09T15:41:03;8.10;99.90
35920;DHT22;36160;53.370;-6.196;2023-01-09T15:43:31;8.10;99.90
35920;DHT22;36160;53.370;-6.196;2023-01-09T15:45:58;8.00;99.90
35920;DHT22;36160;53.370;-6.196;2023-01-09T15:51:11;7.90;1.00
35920;DHT22;36160;53.370;-6.196;2023-01-09T15:53:44;7.90;1.00
35920;DHT22;36160;53.370;-6.196;2023-01-09T15:56:16;7.80;1.00
35920;DHT22;36160;53.370;-6.196;2023-01-09T15:58:48;7.70;1.00
35920;DHT22;36160;53.370;-6.196;2023-01-09T16:01:31;7.70;1.00
35920;DHT22;36160;53.370;-6.196;2023-01-09T16:04:17;7.60;1.00
35920;DHT22;36160;53.370;-6.196;2023-01-09T16:06:48;7.50;1.00
35920;DHT22;36160;53.370;-6.196;2023-01-09T16:09:26;7.40;1.10
35920;DHT22;36160;53.370;-6.196;2023-01-09T16:11:55;7.40;8.20
35920;DHT22;36160;53.370;-6.196;2023-01-09T16:14:24;7.40;7.60
35920;DHT22;36160;53.370;-6.196;2023-01-09T16:17:02;7.40;15.20
35920;DHT22;36160;53.370;-6.196;2023-01-09T16:21:57;7.30;20.20
35920;DHT22;36160;53.370;-6.196;2023-01-09T16:24:46;7.30;20.00
35920;DHT22;36160;53.370;-6.196;2023-01-09T16:29:53;7.20;26.90
35920;DHT22;36160;53.370;-6.196;2023-01-09T16:32:23;7.10;30.10
35920;DHT22;36160;53.370;-6.196;2023-01-09T16:35:16;7.10;37.30
35920;DHT22;36160;53.370;-6.196;2023-01-09T16:37:42;7.10;40.00
35920;DHT22;36160;53.370;-6.196;2023-01-09T16:42:43;7.00;47.20
35920;DHT22;36160;53.370;-6.196;2023-01-09T16:47:55;7.00;57.20
35920;DHT22;36160;53.370;-6.196;2023-01-09T16:50:23;7.00;57.90
35920;DHT22;36160;53.370;-6.196;2023-01-09T16:52:49;7.00;60.80
35920;DHT22;36160;53.370;-6.196;2023-01-09T16:55:15;6.90;67.00
35920;DHT22;36160;53.370;-6.196;2023-01-09T16:57:42;7.00;71.30
35920;DHT22;36160;53.370;-6.196;2023-01-09T17:00:16;6.90;72.90
35920;DHT22;36160;53.370;-6.196;2023-01-09T17:02:43;6.90;74.50
35920;DHT22;36160;53.370;-6.196;2023-01-09T17:05:08;6.90;76.30
35920;DHT22;36160;53.370;-6.196;2023-01-09T17:07:35;6.90;76.40
35920;DHT22;36160;53.370;-6.196;2023-01-09T17:10:02;6.90;73.10
35920;DHT22;36160;53.370;-6.196;2023-01-09T17:12:29;6.90;73.10
35920;DHT22;36160;53.370;-6.196;2023-01-09T17:14:55;6.80;69.60
35920;DHT22;36160;53.370;-6.196;2023-01-09T17:17:20;6.80;69.80
35920;DHT22;36160;53.370;-6.196;2023-01-09T17:19:48;6.80;70.00
35920;DHT22;36160;53.370;-6.196;2023-01-09T17:22:14;6.80;70.50
35920;DHT22;36160;53.370;-6.196;2023-01-09T17:24:40;6.80;64.60
35920;DHT22;36160;53.370;-6.196;2023-01-09T17:27:36;6.70;63.20
35920;DHT22;36160;53.370;-6.196;2023-01-09T17:30:21;6.70;64.20
35920;DHT22;36160;53.370;-6.196;2023-01-09T17:32:47;6.70;56.00
35920;DHT22;36160;53.370;-6.196;2023-01-09T17:35:14;6.70;58.50
35920;DHT22;36160;53.370;-6.196;2023-01-09T17:37:40;6.70;55.00
35920;DHT22;36160;53.370;-6.196;2023-01-09T17:40:25;6.70;52.90
35920;DHT22;36160;53.370;-6.196;2023-01-09T17:42:51;6.70;53.40
35920;DHT22;36160;53.370;-6.196;2023-01-09T17:45:17;6.70;51.60
35920;DHT22;36160;53.370;-6.196;2023-01-09T17:47:42;6.70;45.20
35920;DHT22;36160;53.370;-6.196;2023-01-09T17:50:17;6.70;45.50
35920;DHT22;36160;53.370;-6.196;2023-01-09T17:52:44;6.70;42.60
35920;DHT22;36160;53.370;-6.196;2023-01-09T17:55:10;6.70;43.40
35920;DHT22;36160;53.370;-6.196;2023-01-09T17:57:36;6.70;46.00
35920;DHT22;36160;53.370;-6.196;2023-01-09T18:00:02;6.70;45.70
35920;DHT22;36160;53.370;-6.196;2023-01-09T18:02:31;6.70;46.00
35920;DHT22;36160;53.370;-6.196;2023-01-09T18:04:57;6.70;44.70
35920;DHT22;36160;53.370;-6.196;2023-01-09T18:07:22;6.70;45.10
35920;DHT22;36160;53.370;-6.196;2023-01-09T18:09:48;6.70;45.30
35920;DHT22;36160;53.370;-6.196;2023-01-09T18:12:14;6.70;48.80
35920;DHT22;36160;53.370;-6.196;2023-01-09T18:14:40;6.70;48.20
35920;DHT22;36160;53.370;-6.196;2023-01-09T18:17:07;6.70;43.90
35920;DHT22;36160;53.370;-6.196;2023-01-09T18:19:34;6.70;45.10
35920;DHT22;36160;53.370;-6.196;2023-01-09T18:22:01;6.70;47.20
35920;DHT22;36160;53.370;-6.196;2023-01-09T18:24:28;6.70;46.70
35920;DHT22;36160;53.370;-6.196;2023-01-09T18:26:53;6.70;46.10
35920;DHT22;36160;53.370;-6.196;2023-01-09T18:29:19;6.60;45.60
35920;DHT22;36160;53.370;-6.196;2023-01-09T18:31:46;6.60;48.40
35920;DHT22;36160;53.370;-6.196;2023-01-09T18:34:11;6.70;45.00